Time;durP1;ratioP1;P1;durP2;ratioP2;P2;SDS_P1;SDS_P2;PMS_P1;PMS_P2;Temp;Humidity;BMP_temperature;BMP_pressure;BME280_temperature;BME280_humidity;BME280_pressure;Samples;Min_cycle;Max_cycle;Signal;HPM_P1;HPM_P2
2022/09/11 00:01:28;;;;;;;8.08;5.20;;;;;;;13.65;73.11;99937.09;1690644;84;21040;-72
2022/09/11 00:03:55;;;;;;;9.70;4.75;;;;;;;13.66;73.01;99934.78;1657478;86;21016;-72
2022/09/11 00:06:22;;;;;;;9.45;4.90;;;;;;;13.68;72.90;99938.94;1690716;84;22575;-72
2022/09/11 00:08:56;;;;;;;6.95;5.10;;;;;;;13.71;72.80;99948.45;1657435;85;20997;-73
2022/09/11 00:11:22;;;;;;;10.38;5.03;;;;;;;13.72;72.81;99940.33;1690944;84;21020;-72
2022/09/11 00:13:50;;;;;;;11.10;5.40;;;;;;;13.73;72.88;99933.20;1657585;86;21362;-72
2022/09/11 00:16:28;;;;;;;8.93;5.20;;;;;;;13.72;73.02;99934.19;1690751;84;21362;-72
2022/09/11 00:18:58;;;;;;;7.53;4.67;;;;;;;13.68;73.20;99926.17;1657462;85;23052;-72
2022/09/11 00:21:25;;;;;;;8.83;5.35;;;;;;;13.65;73.39;99916.70;1633483;86;21486;-72
2022/09/11 00:23:52;;;;;;;8.03;4.83;;;;;;;13.63;73.60;99917.35;1690854;84;21067;-72
2022/09/11 00:26:19;;;;;;;9.40;5.12;;;;;;;13.60;73.84;99917.63;1657763;85;21000;-72
2022/09/11 00:28:46;;;;;;;9.65;5.53;;;;;;;13.58;74.02;99915.63;1690861;84;21266;-72
2022/09/11 00:31:16;;;;;;;11.00;5.20;;;;;;;13.57;74.15;99912.64;1657642;85;21951;-73
2022/09/11 00:33:43;;;;;;;10.25;5.62;;;;;;;13.57;74.29;99913.14;1657897;86;21068;-73
2022/09/11 00:36:13;;;;;;;9.83;5.72;;;;;;;13.55;74.42;99904.01;1657694;86;21016;-73
2022/09/11 00:38:39;;;;;;;8.20;5.30;;;;;;;13.53;74.61;99910.45;1657900;86;21013;-73
2022/09/11 00:41:10;;;;;;;7.95;5.22;;;;;;;13.51;74.72;99911.94;1657692;86;21056;-73
2022/09/11 00:43:59;;;;;;;8.23;5.08;;;;;;;13.51;74.80;99915.92;1657927;86;21805;-72
2022/09/11 00:46:42;;;;;;;6.35;4.90;;;;;;;13.51;74.89;99911.94;1691265;84;21028;-72
2022/09/11 00:49:33;;;;;;;11.53;4.92;;;;;;;13.51;74.98;99917.25;1657571;86;21502;-72
2022/09/11 00:52:17;;;;;;;8.45;5.25;;;;;;;13.52;75.03;99919.41;1690744;84;21032;-73
2022/09/11 00:54:58;;;;;;;7.35;5.10;;;;;;;13.52;75.06;99922.89;1657698;86;21028;-73
2022/09/11 00:57:28;;;;;;;13.50;5.10;;;;;;;13.52;75.10;99921.56;1690888;84;22541;-73
2022/09/11 00:59:57;;;;;;;11.63;5.22;;;;;;;13.52;75.08;99920.23;1657578;86;21008;-73
2022/09/11 01:02:23;;;;;;;11.78;4.97;;;;;;;13.53;75.13;99917.09;1690869;84;21039;-73
2022/09/11 01:04:50;;;;;;;6.40;4.80;;;;;;;13.54;75.11;99914.78;1669631;85;21046;-72
2022/09/11 01:07:16;;;;;;;9.53;5.10;;;;;;;13.54;75.10;99914.28;1667603;84;21050;-73
2022/09/11 01:09:44;;;;;;;9.10;5.30;;;;;;;13.55;75.11;99914.62;1669730;85;22043;-73
2022/09/11 01:12:30;;;;;;;7.55;5.15;;;;;;;13.55;75.13;99919.93;1689151;84;21356;-73
2022/09/11 01:15:10;;;;;;;9.23;5.08;;;;;;;13.56;75.15;99922.09;1702926;84;21027;-73
2022/09/11 01:17:50;;;;;;;6.87;5.17;;;;;;;13.55;75.23;99910.64;1696163;84;21101;-73
2022/09/11 01:20:52;;;;;;;9.40;5.30;;;;;;;13.56;75.30;99910.14;1669658;85;21134;-72
2022/09/11 01:23:37;;;;;;;8.33;4.97;;;;;;;13.56;75.37;99916.28;1696706;84;21823;-72
2022/09/11 01:27:01;;;;;;;8.58;5.40;;;;;;;13.57;75.39;99917.12;1695316;83;21042;-72
2022/09/11 01:29:31;;;;;;;13.47;5.30;;;;;;;13.56;75.47;99911.47;1694186;84;21027;-72
2022/09/11 01:32:18;;;;;;;9.03;4.92;;;;;;;13.56;75.51;99900.36;1667283;85;21486;-72
2022/09/11 01:35:23;;;;;;;9.63;5.58;;;;;;;13.57;75.59;99910.48;1675772;84;37183;-73
2022/09/11 01:37:56;;;;;;;9.78;5.60;;;;;;;13.55;75.61;99911.14;1669538;85;21888;-71
2022/09/11 01:40:54;;;;;;;9.73;5.33;;;;;;;13.56;75.72;99915.45;1696513;84;21043;-72
2022/09/11 01:43:25;;;;;;;9.28;5.20;;;;;;;13.55;75.74;99917.77;1669638;85;21092;-72
2022/09/11 01:45:53;;;;;;;10.78;5.40;;;;;;;13.54;75.77;99915.61;1696664;84;21031;-72
2022/09/11 01:48:31;;;;;;;11.15;5.75;;;;;;;13.54;75.85;99911.63;1696177;84;21050;-72
2022/09/11 01:50:59;;;;;;;8.55;5.30;;;;;;;13.55;75.89;99905.83;1669455;85;21883;-72
2022/09/11 01:53:31;;;;;;;8.38;4.97;;;;;;;13.56;75.92;99902.19;1669513;85;21064;-72
2022/09/11 01:56:02;;;;;;;13.25;5.60;;;;;;;13.55;75.97;99900.02;1669522;85;21096;-72
2022/09/11 01:58:31;;;;;;;6.90;5.50;;;;;;;13.56;75.97;99898.20;1669896;85;21057;-72
2022/09/11 02:01:11;;;;;;;8.60;5.22;;;;;;;13.54;75.97;99890.41;1669805;85;21107;-72
2022/09/11 02:03:51;;;;;;;9.43;5.62;;;;;;;13.55;75.95;99881.95;1651046;85;21856;-72
2022/09/11 02:06:31;;;;;;;8.10;5.55;;;;;;;13.55;75.96;99885.92;1696536;84;21487;-73
2022/09/11 02:09:01;;;;;;;8.43;5.67;;;;;;;13.54;75.94;99883.77;1702433;84;21345;-72
2022/09/11 02:11:31;;;;;;;10.72;5.65;;;;;;;13.54;75.94;99881.61;1670535;85;21303;-73
2022/09/11 02:14:09;;;;;;;10.00;5.75;;;;;;;13.54;75.94;99877.63;1701075;84;21289;-72
2022/09/11 02:17:02;;;;;;;12.15;6.05;;;;;;;13.53;75.96;99881.27;1662879;83;22394;-72
2022/09/11 02:19:29;;;;;;;11.08;6.20;;;;;;;13.52;75.92;99880.44;1672230;85;21322;-72
2022/09/11 02:21:57;;;;;;;13.00;6.37;;;;;;;13.52;75.96;99887.08;1701290;84;21023;-72
2022/09/11 02:24:24;;;;;;;11.25;6.25;;;;;;;13.51;75.94;99879.24;1672142;85;21444;-72
2022/09/11 02:26:54;;;;;;;9.43;6.20;;;;;;;13.51;75.91;99876.59;1676722;84;21034;-72
2022/09/11 02:29:21;;;;;;;8.35;5.55;;;;;;;13.52;75.90;99879.11;1671741;85;21853;-72
2022/09/11 02:31:48;;;;;;;13.45;5.62;;;;;;;13.53;75.96;99876.80;1672239;85;21319;-72
2022/09/11 02:34:16;;;;;;;8.08;5.37;;;;;;;13.50;75.86;99873.59;1672253;85;21842;-72
2022/09/11 02:37:14;;;;;;;10.50;5.67;;;;;;;13.49;75.83;99863.48;1672246;85;21069;-72
2022/09/11 02:39:49;;;;;;;10.58;5.75;;;;;;;13.49;75.82;99862.16;1672620;85;21084;-72
2022/09/11 02:42:44;;;;;;;14.13;5.78;;;;;;;13.49;75.67;99862.16;1671831;85;21788;-73
2022/09/11 02:45:34;;;;;;;12.28;6.45;;;;;;;13.49;75.61;99867.95;1701277;84;21308;-73
2022/09/11 02:48:27;;;;;;;15.85;5.85;;;;;;;13.49;75.62;99866.63;1668903;85;21580;-74
2022/09/11 02:51:04;;;;;;;7.73;5.60;;;;;;;13.49;75.64;99862.65;1672506;85;21064;-73
2022/09/11 02:54:12;;;;;;;11.48;5.62;;;;;;;13.48;75.69;99869.78;1672589;85;21158;-73
2022/09/11 02:56:54;;;;;;;9.73;5.62;;;;;;;13.46;75.72;99859.32;1672276;85;22904;-73
2022/09/11 02:59:28;;;;;;;9.80;5.62;;;;;;;13.47;75.85;99861.48;1701315;84;21105;-73
2022/09/11 03:01:58;;;;;;;8.83;6.10;;;;;;;13.46;75.88;99862.47;1671985;85;21777;-73
2022/09/11 03:04:24;;;;;;;10.48;5.72;;;;;;;13.46;75.89;99867.77;1701013;83;21027;-73
2022/09/11 03:06:53;;;;;;;13.62;5.90;;;;;;;13.45;75.90;99863.45;1701049;84;21030;-73
2022/09/11 03:09:20;;;;;;;9.90;5.45;;;;;;;13.44;75.91;99870.59;1672239;85;21846;-73
2022/09/11 03:11:48;;;;;;;11.10;5.33;;;;;;;13.44;75.90;99871.08;1700134;83;21510;-73
2022/09/11 03:14:16;;;;;;;10.48;5.30;;;;;;;13.46;75.87;99875.23;1669360;85;21727;-73
2022/09/11 03:16:43;;;;;;;12.63;5.47;;;;;;;13.47;75.85;99872.09;1698241;83;21015;-72
2022/09/11 03:19:11;;;;;;;10.10;5.65;;;;;;;13.48;75.82;99860.49;1669561;85;21072;-73
2022/09/11 03:21:39;;;;;;;9.63;5.42;;;;;;;13.49;75.76;99856.02;1698344;84;21936;-73
2022/09/11 03:24:07;;;;;;;8.35;5.92;;;;;;;13.46;75.72;99860.65;1669383;85;21863;-73
2022/09/11 03:26:35;;;;;;;8.95;5.55;;;;;;;13.44;75.77;99856.48;1698214;84;21007;-73
2022/09/11 03:29:02;;;;;;;9.60;5.78;;;;;;;13.41;75.83;99863.41;1698137;84;21035;-73
2022/09/11 03:31:30;;;;;;;7.55;5.45;;;;;;;13.38;75.90;99870.34;1669507;84;21806;-73
2022/09/11 03:33:56;;;;;;;8.18;5.78;;;;;;;13.36;75.96;99867.85;1698495;84;22473;-73
2022/09/11 03:36:23;;;;;;;8.43;5.10;;;;;;;13.34;76.01;99863.70;1669457;85;21810;-73
2022/09/11 03:38:50;;;;;;;10.28;5.90;;;;;;;13.32;76.16;99864.34;1698564;83;21094;-73
2022/09/11 03:41:17;;;;;;;8.50;5.65;;;;;;;13.27;76.25;99863.95;1669479;85;21063;-73
2022/09/11 03:43:43;;;;;;;7.75;6.15;;;;;;;13.25;76.44;99853.50;1698288;84;21038;-73
2022/09/11 03:46:10;;;;;;;8.83;5.70;;;;;;;13.24;76.56;99843.05;1669610;85;22450;-72
2022/09/11 03:48:36;;;;;;;9.75;6.60;;;;;;;13.22;76.68;99835.71;1698193;84;21032;-72
2022/09/11 03:51:04;;;;;;;8.43;6.35;;;;;;;13.18;76.79;99833.84;1669570;85;21721;-72
2022/09/11 03:53:31;;;;;;;10.30;6.28;;;;;;;13.16;76.84;99833.99;1698498;84;21748;-72
2022/09/11 03:56:03;;;;;;;9.35;6.33;;;;;;;13.13;76.88;99838.77;1669562;85;21049;-72
2022/09/11 03:58:31;;;;;;;13.32;6.72;;;;;;;13.10;76.98;99839.05;1698740;84;21915;-73
2022/09/11 04:00:59;;;;;;;8.45;6.45;;;;;;;13.07;77.04;99830.92;1669289;84;21067;-73
2022/09/11 04:03:25;;;;;;;9.23;6.30;;;;;;;13.06;77.08;99833.73;1698495;84;21079;-73
2022/09/11 04:05:58;;;;;;;8.25;5.80;;;;;;;13.02;77.10;99829.20;1669618;85;21044;-73
2022/09/11 04:08:25;;;;;;;9.95;6.05;;;;;;;13.00;77.09;99825.87;1698654;84;21481;-73
2022/09/11 04:10:56;;;;;;;10.23;5.95;;;;;;;12.97;77.10;99828.83;1644428;85;21913;-73
2022/09/11 04:13:32;;;;;;;12.78;6.20;;;;;;;12.97;77.14;99833.30;1664388;85;21011;-73
2022/09/11 04:16:01;;;;;;;9.58;5.53;;;;;;;12.94;77.14;99827.81;1679791;83;21270;-73
2022/09/11 04:18:31;;;;;;;9.68;5.90;;;;;;;12.92;77.14;99820.48;1663139;86;21723;-73
2022/09/11 04:20:57;;;;;;;8.28;5.65;;;;;;;12.89;77.16;99816.32;1634825;87;21793;-73
2022/09/11 04:23:24;;;;;;;8.50;5.47;;;;;;;12.87;77.18;99818.79;1691923;84;22427;-72
2022/09/11 04:25:52;;;;;;;13.45;6.00;;;;;;;12.86;77.13;99815.80;1663115;86;20995;-73
2022/09/11 04:28:19;;;;;;;8.23;5.33;;;;;;;12.84;77.16;99820.42;1635003;87;21254;-73
2022/09/11 04:30:46;;;;;;;8.55;5.40;;;;;;;12.84;77.20;99830.53;1691578;84;21043;-73
2022/09/11 04:33:12;;;;;;;7.85;5.50;;;;;;;12.84;77.22;99835.84;1663288;86;21052;-73
2022/09/11 04:35:39;;;;;;;8.85;5.60;;;;;;;12.84;77.21;99845.60;1634954;87;21853;-73
2022/09/11 04:38:06;;;;;;;7.62;5.83;;;;;;;12.81;77.18;99847.20;1691540;84;21015;-73
2022/09/11 04:40:34;;;;;;;6.65;5.22;;;;;;;12.77;77.25;99848.00;1638026;86;21016;-72
2022/09/11 04:43:01;;;;;;;7.85;5.15;;;;;;;12.75;77.36;99842.03;1663142;86;21016;-73
2022/09/11 04:45:32;;;;;;;9.00;5.37;;;;;;;12.74;77.42;99825.79;1663111;85;21020;-73
2022/09/11 04:47:57;;;;;;;7.37;5.12;;;;;;;12.75;77.47;99826.62;1662912;85;21850;-73
2022/09/11 04:50:23;;;;;;;6.45;4.83;;;;;;;12.73;77.59;99816.64;1663006;85;21060;-73
2022/09/11 04:52:52;;;;;;;8.63;5.60;;;;;;;12.69;77.65;99814.78;1660497;86;21016;-73
2022/09/11 04:55:18;;;;;;;11.55;5.90;;;;;;;12.66;77.75;99815.09;1634628;87;21060;-73
2022/09/11 04:57:45;;;;;;;11.50;5.35;;;;;;;12.64;77.86;99826.80;1691596;84;21330;-73
2022/09/11 05:00:13;;;;;;;10.13;5.40;;;;;;;12.60;77.97;99840.84;1663404;86;21798;-73
2022/09/11 05:02:42;;;;;;;7.12;4.62;;;;;;;12.58;78.09;99842.81;1634646;87;21035;-73
2022/09/11 05:05:08;;;;;;;8.75;5.25;;;;;;;12.57;78.19;99840.66;1691570;84;21059;-73
2022/09/11 05:07:35;;;;;;;5.92;4.65;;;;;;;12.58;78.32;99843.64;1663171;85;21056;-73
2022/09/11 05:10:03;;;;;;;8.68;4.87;;;;;;;12.60;78.39;99839.03;1634994;87;21035;-72
2022/09/11 05:12:30;;;;;;;7.92;5.28;;;;;;;12.61;78.47;99838.05;1691258;84;21907;-73
2022/09/11 05:14:58;;;;;;;8.43;5.05;;;;;;;12.64;78.49;99840.05;1657523;85;21015;-73
2022/09/11 05:17:25;;;;;;;5.72;4.47;;;;;;;12.64;78.51;99835.58;1690801;84;21667;-72
2022/09/11 05:19:52;;;;;;;9.15;4.65;;;;;;;12.64;78.53;99834.25;1632641;86;21091;-72
2022/09/11 05:22:22;;;;;;;10.70;5.10;;;;;;;12.64;78.54;99832.92;1690629;84;21106;-73
2022/09/11 05:24:50;;;;;;;7.62;4.65;;;;;;;12.64;78.58;99842.70;1690680;83;21913;-72
2022/09/11 05:27:17;;;;;;;10.23;4.37;;;;;;;12.63;78.59;99839.70;1690767;84;21024;-73
2022/09/11 05:29:44;;;;;;;9.33;4.40;;;;;;;12.61;78.67;99846.48;1690805;84;21396;-73
2022/09/11 05:32:12;;;;;;;8.35;4.42;;;;;;;12.60;78.71;99852.27;1657598;86;21057;-73
2022/09/11 05:34:39;;;;;;;9.23;4.47;;;;;;;12.60;78.79;99851.44;1690757;84;21285;-72
2022/09/11 05:37:07;;;;;;;7.20;4.35;;;;;;;12.61;78.88;99841.19;1657519;86;22284;-72
2022/09/11 05:39:36;;;;;;;7.25;4.37;;;;;;;12.62;78.92;99842.84;1690205;84;21026;-72
2022/09/11 05:42:03;;;;;;;8.73;4.70;;;;;;;12.60;78.91;99844.81;1657623;86;21008;-72
2022/09/11 05:44:31;;;;;;;7.53;4.67;;;;;;;12.56;78.89;99852.23;1690775;84;21282;-73
2022/09/11 05:46:58;;;;;;;5.78;4.40;;;;;;;12.56;78.92;99850.08;1657606;85;21294;-72
2022/09/11 05:49:25;;;;;;;7.58;4.12;;;;;;;12.56;79.05;99849.59;1691036;84;21794;-71
2022/09/11 05:51:52;;;;;;;10.32;4.50;;;;;;;12.56;79.06;99837.67;1657583;86;21456;-72
2022/09/11 05:54:18;;;;;;;10.75;4.58;;;;;;;12.57;79.05;99839.33;1691001;84;21122;-73
2022/09/11 05:56:45;;;;;;;7.45;4.33;;;;;;;12.57;78.98;99839.33;1657568;85;21129;-73
2022/09/11 05:59:14;;;;;;;7.70;4.37;;;;;;;12.56;78.91;99842.97;1690344;84;21012;-73
2022/09/11 06:01:42;;;;;;;8.73;3.85;;;;;;;12.54;78.87;99843.58;1657530;86;22021;-72
2022/09/11 06:04:13;;;;;;;6.60;3.90;;;;;;;12.53;78.79;99841.91;1690407;84;21058;-72
2022/09/11 06:06:42;;;;;;;5.65;3.70;;;;;;;12.51;78.71;99841.23;1657581;85;21012;-73
2022/09/11 06:09:09;;;;;;;6.20;3.90;;;;;;;12.50;78.71;99832.95;1690815;84;21079;-72
2022/09/11 06:11:36;;;;;;;8.15;3.98;;;;;;;12.49;78.60;99825.98;1657919;86;21325;-72
2022/09/11 06:14:04;;;;;;;6.37;3.75;;;;;;;12.47;78.57;99828.45;1701034;84;21019;-72
2022/09/11 06:16:32;;;;;;;9.85;4.03;;;;;;;12.46;78.53;99823.64;1669523;85;21061;-73
2022/09/11 06:19:01;;;;;;;10.03;4.22;;;;;;;12.46;78.45;99825.45;1695569;84;21023;-72
2022/09/11 06:21:28;;;;;;;6.80;4.28;;;;;;;12.47;78.42;99825.80;1678013;84;21573;-73
2022/09/11 06:23:56;;;;;;;6.92;4.00;;;;;;;12.45;78.35;99828.59;1695770;82;21095;-72
2022/09/11 06:26:25;;;;;;;5.95;4.00;;;;;;;12.46;78.36;99832.08;1696210;84;21854;-72
2022/09/11 06:28:52;;;;;;;5.97;3.72;;;;;;;12.47;78.38;99828.45;1696475;84;21023;-72
2022/09/11 06:31:22;;;;;;;7.35;3.52;;;;;;;12.46;78.40;99831.59;1669590;85;21056;-72
2022/09/11 06:33:49;;;;;;;6.12;3.75;;;;;;;12.47;78.37;99835.90;1696474;84;21082;-72
2022/09/11 06:36:20;;;;;;;7.92;3.80;;;;;;;12.44;78.32;99834.02;1669525;85;21765;-72
2022/09/11 06:38:48;;;;;;;8.73;3.42;;;;;;;12.44;78.35;99840.14;1696512;83;22467;-72
2022/09/11 06:41:17;;;;;;;10.00;3.55;;;;;;;12.42;78.32;99835.98;1672601;85;21053;-72
2022/09/11 06:43:45;;;;;;;5.90;3.62;;;;;;;12.40;78.34;99840.11;1669735;85;21521;-72
2022/09/11 06:46:18;;;;;;;7.78;3.40;;;;;;;12.38;78.38;99839.92;1670390;85;21072;-72
2022/09/11 06:48:47;;;;;;;9.55;3.77;;;;;;;12.37;78.46;99841.73;1669773;85;21858;-72
2022/09/11 06:51:17;;;;;;;8.50;3.83;;;;;;;12.39;78.54;99840.26;1650277;85;21739;-72
2022/09/11 06:53:46;;;;;;;9.43;4.22;;;;;;;12.38;78.56;99843.89;1696210;84;21035;-72
2022/09/11 06:56:15;;;;;;;8.15;3.67;;;;;;;12.37;78.57;99843.55;1669464;85;21339;-72
2022/09/11 06:58:44;;;;;;;5.45;3.58;;;;;;;12.35;78.56;99846.31;1677883;84;21067;-72
2022/09/11 07:01:18;;;;;;;8.15;4.03;;;;;;;12.32;78.59;99848.78;1669703;85;21324;-74
2022/09/11 07:03:55;;;;;;;7.85;3.75;;;;;;;12.33;78.64;99852.25;1696249;84;22339;-74
2022/09/11 07:06:24;;;;;;;5.78;3.30;;;;;;;12.32;78.72;99847.45;1669525;85;21139;-74
2022/09/11 07:08:59;;;;;;;8.40;3.37;;;;;;;12.33;78.79;99849.61;1696149;84;21411;-75
2022/09/11 07:11:23;;;;;;;8.18;3.50;;;;;;;12.36;78.86;99854.63;1669523;85;21104;-73
2022/09/11 07:13:52;;;;;;;6.47;3.12;;;;;;;12.38;78.88;99851.84;1698185;84;21077;-74
2022/09/11 07:16:19;;;;;;;5.20;2.83;;;;;;;12.38;78.89;99850.02;1677606;85;21713;-74
2022/09/11 07:18:48;;;;;;;5.75;3.30;;;;;;;12.38;78.83;99848.70;1706032;84;21046;-74
2022/09/11 07:21:22;;;;;;;6.10;3.02;;;;;;;12.39;78.76;99849.53;1706120;84;21046;-74
2022/09/11 07:23:53;;;;;;;4.83;3.00;;;;;;;12.36;78.67;99846.69;1677550;85;21004;-74
2022/09/11 07:26:21;;;;;;;5.33;2.80;;;;;;;12.34;78.66;99844.66;1706785;84;21289;-74
2022/09/11 07:28:50;;;;;;;7.22;3.20;;;;;;;12.35;78.69;99846.81;1682059;84;22008;-74
2022/09/11 07:31:23;;;;;;;7.10;3.25;;;;;;;12.36;78.71;99846.69;1677626;85;21325;-77
2022/09/11 07:33:51;;;;;;;6.08;3.45;;;;;;;12.37;78.76;99847.52;1706227;84;21054;-74
2022/09/11 07:36:25;;;;;;;5.87;3.00;;;;;;;12.36;78.77;99848.02;1682679;84;21533;-74
2022/09/11 07:38:54;;;;;;;6.75;3.12;;;;;;;12.35;78.77;99846.31;1706577;84;21035;-73
2022/09/11 07:41:23;;;;;;;7.97;3.42;;;;;;;12.33;78.84;99842.98;1677830;85;21928;-76
2022/09/11 07:43:57;;;;;;;5.08;3.02;;;;;;;12.32;78.87;99842.65;1706423;84;21482;-74
2022/09/11 07:46:25;;;;;;;7.42;3.62;;;;;;;12.31;78.91;99833.03;1682353;84;21050;-77
2022/09/11 07:48:54;;;;;;;6.58;3.33;;;;;;;12.29;78.95;99841.13;1681808;84;21082;-77
2022/09/11 07:51:20;;;;;;;5.97;3.17;;;;;;;12.29;79.02;99843.78;1682013;84;21514;-75
2022/09/11 07:53:51;;;;;;;9.35;3.12;;;;;;;12.27;79.11;99846.23;1706637;84;22535;-71
2022/09/11 07:56:24;;;;;;;8.40;3.20;;;;;;;12.27;79.26;99842.27;1706705;84;21019;-72
2022/09/11 08:02:47;;;;;;;5.07;2.97;;;;;;;12.26;79.32;99838.78;1706685;84;20978;-73
2022/09/11 08:05:17;;;;;;;6.92;2.80;;;;;;;12.26;79.44;99840.60;1706509;84;21537;-73
2022/09/11 08:07:45;;;;;;;4.22;3.00;;;;;;;12.26;79.50;99836.62;1706627;84;22212;-75
2022/09/11 08:10:13;;;;;;;6.67;3.12;;;;;;;12.25;79.51;99831.80;1681943;84;21788;-73
2022/09/11 08:12:40;;;;;;;9.33;3.37;;;;;;;12.26;79.52;99837.95;1706476;84;21340;-73
2022/09/11 08:15:09;;;;;;;6.12;2.98;;;;;;;12.25;79.50;99830.47;1703189;83;21078;-73
2022/09/11 08:17:36;;;;;;;7.35;3.10;;;;;;;12.24;79.55;99831.95;1669354;85;21548;-74
2022/09/11 08:20:04;;;;;;;7.10;3.40;;;;;;;12.23;79.56;99835.58;1703281;84;21857;-75
2022/09/11 08:22:32;;;;;;;5.80;3.27;;;;;;;12.22;79.63;99836.06;1669386;85;21879;-73
2022/09/11 08:24:58;;;;;;;5.72;3.25;;;;;;;12.24;79.70;99839.39;1703221;82;21473;-74
2022/09/11 08:27:25;;;;;;;6.87;3.30;;;;;;;12.25;79.75;99838.41;1703317;84;21055;-71
2022/09/11 08:29:52;;;;;;;5.87;3.30;;;;;;;12.27;79.80;99838.30;1669193;85;21101;-72
2022/09/11 08:32:19;;;;;;;7.83;3.30;;;;;;;12.28;79.93;99843.93;1703480;82;21975;-72
2022/09/11 08:34:46;;;;;;;6.95;3.62;;;;;;;12.30;79.99;99839.31;1703144;84;21046;-73
2022/09/11 08:37:14;;;;;;;7.75;3.40;;;;;;;12.29;80.00;99842.45;1669177;85;21147;-72
2022/09/11 08:39:41;;;;;;;4.95;3.02;;;;;;;12.30;80.07;99836.67;1703123;84;21039;-75
2022/09/11 08:42:12;;;;;;;8.18;3.27;;;;;;;12.32;80.17;99847.94;1642508;85;21093;-75
2022/09/11 08:44:52;;;;;;;4.95;3.20;;;;;;;12.33;80.22;99840.34;1703229;84;21969;-75
2022/09/11 08:47:26;;;;;;;6.75;3.20;;;;;;;12.35;80.28;99843.67;1667678;85;21100;-75
2022/09/11 08:50:00;;;;;;;5.50;2.95;;;;;;;12.38;80.31;99844.72;1703198;84;21049;-73
2022/09/11 08:52:27;;;;;;;5.22;2.77;;;;;;;12.39;80.38;99838.94;1669251;85;21328;-74
2022/09/11 08:54:57;;;;;;;4.05;3.02;;;;;;;12.41;80.34;99836.97;1652430;84;21054;-73
2022/09/11 08:57:45;;;;;;;4.15;3.10;;;;;;;12.39;80.34;99838.44;1669402;85;22046;-72
2022/09/11 09:00:23;;;;;;;7.60;3.50;;;;;;;12.40;80.37;99837.45;1675080;84;21086;-72
2022/09/11 09:03:29;;;;;;;5.05;3.40;;;;;;;12.43;80.42;99843.78;1703161;84;21027;-73
2022/09/11 09:06:07;;;;;;;5.12;3.25;;;;;;;12.46;80.49;99838.70;1669163;84;21110;-73
2022/09/11 09:09:04;;;;;;;9.45;3.67;;;;;;;12.46;80.44;99838.70;1672645;85;21531;-73
2022/09/11 09:11:49;;;;;;;6.65;3.45;;;;;;;12.44;80.45;99835.34;1667847;84;21784;-72
2022/09/11 09:14:36;;;;;;;6.22;3.45;;;;;;;12.44;80.51;99832.69;1657412;85;21251;-73
2022/09/11 09:17:08;;;;;;;6.80;3.47;;;;;;;12.46;80.56;99830.75;1700169;84;21716;-71
2022/09/11 09:20:02;;;;;;;7.45;3.87;;;;;;;12.49;80.59;99831.28;1701051;84;21023;-71
2022/09/11 09:22:57;;;;;;;8.60;4.20;;;;;;;12.52;80.61;99831.47;1672304;85;21052;-73
2022/09/11 09:25:24;;;;;;;6.17;4.28;;;;;;;12.53;80.65;99828.67;1671182;84;22138;-72
2022/09/11 09:28:00;;;;;;;7.03;4.00;;;;;;;12.57;80.78;99831.38;1693711;84;21035;-72
2022/09/11 09:30:30;;;;;;;8.35;4.17;;;;;;;12.60;80.77;99830.25;1701112;84;21773;-71
2022/09/11 09:33:20;;;;;;;6.22;3.35;;;;;;;12.64;80.81;99826.80;1671443;85;21056;-73
2022/09/11 09:35:47;;;;;;;9.58;3.70;;;;;;;12.68;80.89;99822.40;1701040;84;21761;-72
2022/09/11 09:38:19;;;;;;;5.33;3.40;;;;;;;12.72;80.94;99824.24;1672273;85;21811;-71
2022/09/11 09:41:14;;;;;;;5.40;3.62;;;;;;;12.73;80.95;99817.47;1701055;84;20964;-69
2022/09/11 09:44:13;;;;;;;6.20;3.50;;;;;;;12.74;80.95;99815.19;1701491;84;21866;-72
2022/09/11 09:46:45;;;;;;;5.85;4.05;;;;;;;12.77;80.93;99814.05;1672107;84;21080;-72
2022/09/11 09:49:18;;;;;;;8.83;3.80;;;;;;;12.81;80.93;99812.26;1701181;84;21046;-70
2022/09/11 09:51:44;;;;;;;5.97;3.87;;;;;;;12.84;80.94;99803.20;1698314;82;21915;-71
2022/09/11 09:54:14;;;;;;;5.97;3.25;;;;;;;12.86;80.93;99804.70;1672486;85;21068;-72
2022/09/11 09:56:42;;;;;;;7.62;3.62;;;;;;;12.89;80.95;99799.09;1701075;84;21917;-72
2022/09/11 09:59:13;;;;;;;6.92;3.62;;;;;;;12.94;80.98;99801.80;1701229;84;21085;-72
2022/09/11 10:01:50;;;;;;;8.35;3.42;;;;;;;12.96;80.91;99800.66;1672254;85;21132;-72
2022/09/11 10:04:29;;;;;;;6.37;3.37;;;;;;;12.99;80.88;99791.06;1701061;84;21933;-72
2022/09/11 10:07:10;;;;;;;7.75;3.30;;;;;;;13.00;80.75;99793.23;1701196;84;21034;-73
2022/09/11 10:09:51;;;;;;;6.22;3.40;;;;;;;12.98;80.68;99799.18;1648133;85;21072;-72
2022/09/11 10:12:20;;;;;;;7.53;3.17;;;;;;;13.01;80.67;99801.52;1672283;85;21076;-74
2022/09/11 10:15:00;;;;;;;6.03;3.55;;;;;;;13.00;80.63;99803.34;1650042;85;21052;-73
2022/09/11 10:17:32;;;;;;;7.08;3.80;;;;;;;13.02;80.64;99807.16;1679891;84;22873;-74
2022/09/11 10:20:25;;;;;;;7.05;3.98;;;;;;;13.06;80.68;99803.23;1706114;84;21757;-74
2022/09/11 10:22:53;;;;;;;6.85;3.62;;;;;;;13.11;80.79;99807.08;1679043;85;21316;-71
2022/09/11 10:25:28;;;;;;;6.37;4.45;;;;;;;13.16;80.68;99800.02;1705953;84;21778;-70
2022/09/11 10:28:05;;;;;;;7.65;5.53;;;;;;;13.15;80.55;99794.38;1679342;85;21075;-70
2022/09/11 10:30:39;;;;;;;7.22;4.17;;;;;;;13.17;80.56;99791.91;1706139;84;21788;-70
2022/09/11 10:33:27;;;;;;;5.55;3.60;;;;;;;13.22;80.55;99793.28;1679303;85;21094;-70
2022/09/11 10:35:54;;;;;;;8.28;3.40;;;;;;;13.22;80.48;99787.52;1706125;84;21070;-69
2022/09/11 10:38:26;;;;;;;8.75;3.30;;;;;;;13.25;80.41;99784.55;1679259;85;21099;-70
2022/09/11 10:41:18;;;;;;;6.85;3.42;;;;;;;13.28;80.38;99781.58;1647637;87;21035;-71
2022/09/11 10:43:52;;;;;;;8.78;3.95;;;;;;;13.32;80.33;99785.61;1711227;83;21850;-73
2022/09/11 10:46:32;;;;;;;5.80;3.55;;;;;;;13.35;80.36;99771.20;1710847;83;21556;-74
2022/09/11 10:49:08;;;;;;;6.30;3.55;;;;;;;13.40;80.40;99769.73;1711141;83;21095;-75
2022/09/11 10:51:39;;;;;;;7.20;4.00;;;;;;;13.43;80.33;99769.94;1710885;83;21457;-72
2022/09/11 10:54:18;;;;;;;6.25;3.60;;;;;;;13.43;80.19;99769.44;1679058;85;21096;-72
2022/09/11 10:57:05;;;;;;;5.87;3.65;;;;;;;13.45;80.17;99765.30;1706102;84;21828;-72
2022/09/11 11:00:03;;;;;;;5.80;3.50;;;;;;;13.46;80.12;99762.48;1678778;85;21061;-72
2022/09/11 11:02:33;;;;;;;6.22;3.20;;;;;;;13.49;80.09;99758.69;1706045;84;21022;-72
2022/09/11 11:05:25;;;;;;;7.00;3.55;;;;;;;13.48;79.93;99758.34;1678961;85;21055;-73
2022/09/11 11:08:00;;;;;;;7.75;4.87;;;;;;;13.46;79.87;99762.98;1702526;84;21055;-72
2022/09/11 11:10:50;;;;;;;6.65;3.40;;;;;;;13.44;79.78;99757.84;1679373;85;22915;-72
2022/09/11 11:13:38;;;;;;;6.70;3.15;;;;;;;13.42;79.79;99754.52;1705716;84;21086;-71
2022/09/11 11:16:44;;;;;;;5.53;3.05;;;;;;;13.41;79.82;99755.50;1672307;85;21805;-71
2022/09/11 11:19:26;;;;;;;6.87;4.00;;;;;;;13.39;79.75;99748.66;1672252;85;21495;-70
2022/09/11 11:22:21;;;;;;;6.80;3.95;;;;;;;13.36;79.80;99758.27;1700690;82;21030;-70
2022/09/11 11:25:13;;;;;;;5.33;3.50;;;;;;;13.36;79.89;99752.97;1701025;84;21835;-71
2022/09/11 11:28:23;;;;;;;7.53;4.13;;;;;;;13.36;79.97;99746.33;1672408;85;21064;-71
2022/09/11 11:31:43;;;;;;;6.35;4.00;;;;;;;13.37;80.19;99745.34;1700992;84;21427;-71
2022/09/11 11:34:22;;;;;;;5.72;3.87;;;;;;;13.38;80.32;99738.55;1701294;84;21086;-74
2022/09/11 11:37:02;;;;;;;7.97;4.10;;;;;;;13.42;80.48;99745.73;1672399;85;21398;-70
2022/09/11 11:40:07;;;;;;;11.55;7.90;;;;;;;13.42;80.49;99747.05;1701234;84;22966;-72
2022/09/11 11:42:42;;;;;;;10.30;7.33;;;;;;;13.44;80.55;99745.06;1700978;84;21069;-73
2022/09/11 11:45:33;;;;;;;18.42;16.23;;;;;;;13.42;80.54;99739.09;1668323;84;21064;-74
2022/09/11 11:48:04;;;;;;;11.03;5.60;;;;;;;13.43;80.59;99737.61;1701047;84;21036;-73
2022/09/11 11:50:52;;;;;;;8.57;6.13;;;;;;;13.42;80.60;99725.33;1647307;85;21328;-73
2022/09/11 11:53:23;;;;;;;5.22;3.50;;;;;;;13.46;80.75;99715.23;1700989;84;21877;-74
2022/09/11 11:56:01;;;;;;;6.72;4.80;;;;;;;13.49;80.69;99726.02;1701213;84;21305;-73
2022/09/11 11:58:53;;;;;;;5.15;3.98;;;;;;;13.50;80.73;99731.66;1701168;84;21062;-74
2022/09/11 12:01:31;;;;;;;6.08;3.62;;;;;;;13.52;80.68;99735.84;1700834;84;21316;-72
2022/09/11 12:04:14;;;;;;;5.78;3.33;;;;;;;13.55;80.79;99728.89;1700315;84;21071;-73
2022/09/11 12:06:42;;;;;;;8.80;5.08;;;;;;;13.59;80.86;99726.73;1672132;85;21881;-73